createdAt,value
2022-08-02T00:00:35.434Z,22.22
2022-08-02T00:03:02.832Z,22.16
2022-08-02T00:05:30.001Z,22.26
2022-08-02T00:07:57.525Z,22.16
2022-08-02T00:10:24.548Z,22.34
2022-08-02T00:12:51.877Z,22.21
2022-08-02T00:15:20.547Z,22.26
2022-08-02T00:17:48.807Z,22.30
2022-08-02T00:20:16.195Z,22.29
2022-08-02T00:22:43.852Z,22.28
2022-08-02T00:25:11.278Z,22.26
2022-08-02T00:27:38.500Z,22.27
2022-08-02T00:30:06.412Z,22.19
2022-08-02T00:32:33.581Z,22.17
2022-08-02T00:35:00.912Z,22.25
2022-08-02T00:37:29.156Z,22.20
2022-08-02T00:39:57.694Z,22.17
2022-08-02T00:42:24.895Z,22.18
2022-08-02T00:44:52.055Z,22.26
2022-08-02T00:47:20.007Z,22.25
2022-08-02T00:49:47.792Z,22.21
2022-08-02T00:52:15.193Z,22.19
2022-08-02T00:54:42.601Z,22.15
2022-08-02T00:57:09.810Z,22.03
2022-08-02T00:59:36.973Z,22.05
2022-08-02T01:02:04.742Z,22.04
2022-08-02T01:04:32.473Z,22.08
2022-08-02T01:07:12.627Z,22.19
2022-08-02T01:09:42.829Z,22.34
2022-08-02T01:12:11.259Z,22.42
2022-08-02T01:14:41.114Z,22.34
2022-08-02T01:17:33.503Z,22.32
2022-08-02T01:20:03.756Z,22.40
2022-08-02T01:23:01.002Z,22.29
2022-08-02T01:25:53.234Z,22.20
2022-08-02T01:28:23.538Z,22.18
2022-08-02T01:30:58.482Z,22.15
2022-08-02T01:33:31.702Z,22.05
2022-08-02T01:35:59.727Z,21.92
2022-08-02T01:38:35.799Z,21.71
2022-08-02T01:41:04.931Z,21.56
2022-08-02T01:43:34.205Z,21.36
2022-08-02T01:46:02.926Z,21.25
2022-08-02T01:48:32.160Z,21.19
2022-08-02T01:51:01.459Z,21.11
2022-08-02T01:53:30.441Z,20.96
2022-08-02T01:56:00.266Z,21.02
2022-08-02T01:58:31.746Z,20.96
2022-08-02T02:01:00.382Z,20.93
2022-08-02T02:03:29.295Z,20.81
2022-08-02T02:05:58.282Z,20.84
2022-08-02T02:08:31.331Z,20.89
2022-08-02T02:12:12.173Z,20.84
2022-08-02T02:13:50.415Z,20.77
2022-08-02T02:16:20.059Z,20.78
2022-08-02T02:18:49.094Z,20.83
2022-08-02T02:21:16.820Z,20.79
2022-08-02T02:23:44.155Z,20.77
2022-08-02T02:26:15.225Z,20.82
2022-08-02T02:28:47.659Z,20.83
2022-08-02T02:31:19.529Z,20.66
2022-08-02T02:34:10.841Z,20.67
2022-08-02T02:36:41.845Z,20.58
2022-08-02T02:39:13.739Z,20.54
2022-08-02T02:41:42.761Z,20.44
2022-08-02T02:44:13.878Z,20.51
2022-08-02T02:46:41.924Z,20.51
2022-08-02T02:49:11.906Z,20.46
2022-08-02T02:51:42.711Z,20.42
2022-08-02T02:54:29.836Z,20.39
2022-08-02T02:57:01.335Z,20.44
2022-08-02T02:59:29.706Z,20.39
2022-08-02T03:01:58.334Z,20.43
2022-08-02T03:04:55.976Z,20.43
2022-08-02T03:07:16.713Z,20.44
2022-08-02T03:09:44.561Z,20.42
2022-08-02T03:12:14.979Z,20.35
2022-08-02T03:14:49.419Z,20.27
2022-08-02T03:17:16.975Z,20.26
2022-08-02T03:19:45.447Z,20.26
2022-08-02T03:22:13.117Z,20.24
2022-08-02T03:24:40.679Z,20.56
2022-08-02T03:27:08.194Z,20.79
2022-08-02T03:29:35.462Z,20.97
2022-08-02T03:32:02.905Z,20.93
2022-08-02T03:34:30.335Z,20.81
2022-08-02T03:36:58.306Z,20.59
2022-08-02T03:39:26.878Z,20.59
2022-08-02T03:41:55.490Z,20.44
2022-08-02T03:44:23.739Z,20.33
2022-08-02T03:46:52.486Z,20.19
2022-08-02T03:49:24.305Z,20.12
2022-08-02T03:51:53.536Z,20.07
2022-08-02T03:54:22.571Z,20.13
2022-08-02T03:57:00.736Z,20.15
2022-08-02T03:59:27.964Z,20.17
2022-08-02T04:02:03.366Z,20.40
2022-08-02T04:04:31.211Z,20.57
2022-08-02T04:06:58.293Z,20.63
2022-08-02T04:09:27.487Z,20.82
2022-08-02T04:11:54.687Z,20.83
2022-08-02T04:14:22.606Z,20.89
2022-08-02T04:16:56.089Z,20.86
2022-08-02T04:19:59.056Z,20.97
2022-08-02T04:22:44.009Z,20.78
2022-08-02T04:25:17.055Z,21.13
2022-08-02T04:27:50.146Z,21.26
2022-08-02T04:30:34.371Z,21.36
2022-08-02T04:33:01.857Z,21.40
2022-08-02T04:35:29.505Z,21.59
2022-08-02T04:38:08.098Z,21.78
2022-08-02T04:40:38.499Z,21.76
2022-08-02T04:43:06.122Z,21.90
2022-08-02T04:45:33.678Z,22.04
2022-08-02T04:48:05.245Z,22.22
2022-08-02T04:50:34.315Z,22.40
2022-08-02T04:53:01.789Z,22.45
2022-08-02T04:55:30.103Z,22.59
2022-08-02T04:57:58.999Z,22.69
2022-08-02T05:00:28.280Z,22.84
2022-08-02T05:03:00.255Z,22.91
2022-08-02T05:05:27.724Z,22.96
2022-08-02T05:07:55.294Z,23.01
2022-08-02T05:10:23.218Z,23.11
2022-08-02T05:12:50.634Z,23.11
2022-08-02T05:15:18.727Z,23.18
2022-08-02T05:17:48.813Z,23.18
2022-08-02T05:20:17.966Z,23.32
2022-08-02T05:22:45.377Z,23.34
2022-08-02T05:25:13.615Z,23.39
2022-08-02T05:27:41.369Z,23.45
2022-08-02T05:30:09.593Z,23.52
2022-08-02T05:32:44.743Z,23.60
2022-08-02T05:35:12.048Z,23.58
2022-08-02T05:37:39.351Z,23.69
2022-08-02T05:40:10.796Z,23.73
2022-08-02T05:42:41.379Z,23.84
2022-08-02T05:45:08.999Z,24.00
2022-08-02T05:47:36.675Z,24.10
2022-08-02T05:50:06.132Z,24.10
2022-08-02T05:52:50.816Z,24.08
2022-08-02T05:55:31.657Z,24.29
2022-08-02T05:58:18.542Z,24.41
2022-08-02T06:00:48.297Z,24.40
2022-08-02T06:03:31.670Z,24.38
2022-08-02T06:06:16.287Z,24.39
2022-08-02T06:08:50.614Z,24.53
2022-08-02T06:11:22.378Z,24.59
2022-08-02T06:13:50.210Z,24.78
2022-08-02T06:16:32.374Z,24.92
2022-08-02T06:19:01.327Z,24.82
2022-08-02T06:22:30.701Z,24.97
2022-08-02T06:24:22.231Z,25.05
2022-08-02T06:26:52.820Z,25.15
2022-08-02T06:29:23.282Z,25.26
2022-08-02T06:31:53.323Z,25.24
2022-08-02T06:34:20.768Z,25.43
2022-08-02T06:36:58.682Z,25.40
2022-08-02T06:39:37.499Z,25.60
2022-08-02T06:42:16.081Z,25.66
2022-08-02T06:44:48.857Z,25.76
2022-08-02T06:47:18.309Z,25.77
2022-08-02T06:49:51.514Z,25.90
2022-08-02T06:52:28.990Z,25.93
2022-08-02T06:55:02.028Z,25.98
2022-08-02T06:57:31.979Z,26.07
2022-08-02T07:00:05.086Z,26.08
2022-08-02T07:02:33.129Z,26.26
2022-08-02T07:05:00.640Z,26.37
2022-08-02T07:07:28.482Z,26.20
2022-08-02T07:10:01.397Z,26.19
2022-08-02T07:12:34.314Z,26.37
2022-08-02T07:15:05.998Z,26.53
2022-08-02T07:17:34.839Z,26.65
2022-08-02T07:20:03.134Z,26.69
2022-08-02T07:22:31.258Z,26.75
2022-08-02T07:25:00.358Z,26.85
2022-08-02T07:27:28.058Z,26.93
2022-08-02T07:29:55.700Z,27.04
2022-08-02T07:32:26.121Z,27.00
2022-08-02T07:34:55.315Z,27.11
2022-08-02T07:37:52.929Z,27.10
2022-08-02T07:40:15.133Z,26.91
2022-08-02T07:42:52.429Z,27.16
2022-08-02T07:45:22.123Z,27.23
2022-08-02T07:47:50.330Z,27.21
2022-08-02T07:50:19.238Z,27.24
2022-08-02T07:52:47.457Z,27.27
2022-08-02T07:55:16.026Z,27.40
2022-08-02T07:57:46.521Z,27.55
2022-08-02T08:00:16.341Z,27.54
2022-08-02T08:02:44.723Z,27.63
2022-08-02T08:05:12.319Z,27.75
2022-08-02T08:07:40.151Z,27.81
2022-08-02T08:10:10.060Z,27.82
2022-08-02T08:12:38.698Z,27.76
2022-08-02T08:15:06.449Z,27.75
2022-08-02T08:17:35.133Z,27.81
2022-08-02T08:20:03.353Z,27.75
2022-08-02T08:22:30.697Z,27.77
2022-08-02T08:24:58.116Z,27.72
2022-08-02T08:27:26.123Z,27.73
2022-08-02T08:29:53.317Z,27.61
2022-08-02T08:32:21.112Z,27.47
2022-08-02T08:34:49.057Z,27.47
2022-08-02T08:37:17.968Z,27.57
2022-08-02T08:39:57.966Z,27.73
2022-08-02T08:42:31.259Z,27.94
2022-08-02T08:44:59.929Z,28.08
2022-08-02T08:47:39.947Z,28.22
2022-08-02T08:50:24.925Z,28.18
2022-08-02T08:53:05.315Z,28.16
2022-08-02T08:55:34.408Z,28.24
2022-08-02T08:58:02.639Z,28.34
2022-08-02T09:00:31.860Z,28.32
2022-08-02T09:03:02.254Z,28.27
2022-08-02T09:05:29.955Z,28.13
2022-08-02T09:07:57.268Z,28.03
2022-08-02T09:10:38.156Z,28.02
2022-08-02T09:13:38.342Z,27.70
2022-08-02T09:16:13.009Z,27.76
2022-08-02T09:18:45.604Z,28.04
2022-08-02T09:21:15.004Z,28.14
2022-08-02T09:23:51.790Z,28.25
2022-08-02T09:26:22.043Z,28.48
2022-08-02T09:28:52.616Z,28.64
2022-08-02T09:31:24.563Z,28.75
2022-08-02T09:33:57.552Z,28.53
2022-08-02T09:36:26.703Z,28.98
2022-08-02T09:39:01.933Z,29.12
2022-08-02T09:41:31.976Z,29.11
2022-08-02T09:44:04.639Z,29.30
2022-08-02T09:46:38.310Z,29.31
2022-08-02T09:49:09.677Z,29.21
2022-08-02T09:51:57.194Z,29.15
2022-08-02T09:54:27.790Z,29.23
2022-08-02T09:57:01.677Z,29.26
2022-08-02T09:59:30.079Z,29.25
2022-08-02T10:02:02.486Z,29.30
2022-08-02T10:04:34.096Z,29.54
2022-08-02T10:07:21.747Z,29.51
2022-08-02T10:09:51.133Z,29.55
2022-08-02T10:12:19.363Z,29.70
2022-08-02T10:14:49.806Z,29.84
2022-08-02T10:17:18.534Z,29.80
2022-08-02T10:20:00.209Z,29.86
2022-08-02T10:22:34.232Z,29.64
2022-08-02T10:25:04.731Z,29.54
2022-08-02T10:27:55.111Z,29.28
2022-08-02T10:30:23.717Z,29.30
2022-08-02T10:32:54.312Z,29.37
2022-08-02T10:35:25.640Z,29.39
2022-08-02T10:38:01.767Z,29.71
2022-08-02T10:40:49.014Z,29.53
2022-08-02T10:43:31.762Z,29.33
2022-08-02T10:46:44.444Z,29.36
2022-08-02T10:49:38.485Z,29.30
2022-08-02T10:52:08.230Z,29.24
2022-08-02T10:54:38.811Z,29.41
2022-08-02T10:57:38.662Z,29.49
2022-08-02T11:00:17.264Z,29.59
2022-08-02T11:02:53.579Z,29.54
2022-08-02T11:05:42.898Z,29.33
2022-08-02T11:08:21.682Z,29.10
2022-08-02T11:10:49.179Z,29.26
2022-08-02T11:13:22.796Z,29.42
2022-08-02T11:15:55.451Z,29.73
2022-08-02T11:18:24.794Z,29.88
2022-08-02T11:21:30.786Z,30.06
2022-08-02T11:24:26.310Z,30.18
2022-08-02T11:26:54.006Z,30.28
2022-08-02T11:29:21.664Z,30.43
2022-08-02T11:31:49.501Z,30.61
2022-08-02T11:34:36.898Z,30.68
2022-08-02T11:37:05.775Z,30.58
2022-08-02T11:39:33.136Z,30.32
2022-08-02T11:42:01.152Z,30.33
2022-08-02T11:44:30.036Z,30.00
2022-08-02T11:47:03.610Z,29.85
2022-08-02T11:49:31.253Z,29.86
2022-08-02T11:52:07.389Z,29.89
2022-08-02T11:54:40.527Z,29.79
2022-08-02T11:57:18.937Z,29.69
2022-08-02T11:59:52.213Z,29.73
2022-08-02T12:02:22.797Z,29.75
2022-08-02T12:04:59.102Z,29.80
2022-08-02T12:07:34.435Z,29.77
2022-08-02T12:10:11.914Z,29.92
2022-08-02T12:13:01.278Z,30.05
2022-08-02T12:15:37.446Z,30.36
2022-08-02T12:18:28.774Z,30.54
2022-08-02T12:20:56.949Z,30.74
2022-08-02T12:23:26.058Z,30.81
2022-08-02T12:26:04.940Z,30.82
2022-08-02T12:28:40.581Z,30.90
2022-08-02T12:31:18.255Z,30.81
2022-08-02T12:33:50.683Z,30.67
2022-08-02T12:36:18.944Z,30.65
2022-08-02T12:38:57.489Z,30.33
2022-08-02T12:41:30.219Z,30.16
2022-08-02T12:44:00.027Z,30.12
2022-08-02T12:46:27.515Z,30.05
2022-08-02T12:49:17.799Z,30.16
2022-08-02T12:51:56.548Z,30.02
2022-08-02T12:54:38.776Z,30.16
2022-08-02T12:57:12.861Z,30.05
2022-08-02T12:59:42.679Z,29.75
2022-08-02T13:02:12.706Z,29.85
2022-08-02T13:04:41.376Z,29.79
2022-08-02T13:07:09.546Z,29.86
2022-08-02T13:09:42.355Z,29.68
2022-08-02T13:12:09.973Z,29.69
2022-08-02T13:14:41.027Z,29.64
2022-08-02T13:17:10.543Z,29.66
2022-08-02T13:19:38.732Z,29.69
2022-08-02T13:22:08.406Z,29.81
2022-08-02T13:24:56.273Z,29.99
2022-08-02T13:27:26.387Z,30.07
2022-08-02T13:29:55.492Z,30.04
2022-08-02T13:32:23.873Z,30.29
2022-08-02T13:34:52.389Z,30.39
2022-08-02T13:37:19.841Z,30.38
2022-08-02T13:40:11.882Z,30.58
2022-08-02T13:42:35.944Z,30.81
2022-08-02T13:45:12.910Z,30.94
2022-08-02T13:48:03.279Z,30.94
2022-08-02T13:50:32.200Z,31.20
2022-08-02T13:52:59.519Z,31.26
2022-08-02T13:55:27.038Z,31.30
2022-08-02T13:57:54.602Z,31.14
2022-08-02T14:00:34.274Z,31.07
2022-08-02T14:03:05.846Z,30.65
2022-08-02T14:05:38.094Z,30.65
2022-08-02T14:08:16.820Z,30.71
2022-08-02T14:10:46.375Z,30.61
2022-08-02T14:13:13.885Z,30.54
2022-08-02T14:15:44.778Z,30.45
2022-08-02T14:18:12.607Z,30.53
2022-08-02T14:20:40.097Z,30.56
2022-08-02T14:23:08.428Z,30.61
2022-08-02T14:25:35.854Z,30.71
2022-08-02T14:28:04.986Z,30.57
2022-08-02T14:30:32.477Z,30.82
2022-08-02T14:33:00.913Z,30.90
2022-08-02T14:35:28.529Z,30.95
2022-08-02T14:37:55.871Z,31.13
2022-08-02T14:40:30.918Z,30.98
2022-08-02T14:43:02.928Z,31.05
2022-08-02T14:45:40.072Z,31.06
2022-08-02T14:48:12.094Z,31.19
2022-08-02T14:50:39.906Z,31.38
2022-08-02T14:53:12.341Z,31.46
2022-08-02T14:55:41.182Z,31.35
2022-08-02T14:58:08.817Z,31.29
2022-08-02T15:00:40.612Z,31.17
2022-08-02T15:03:09.846Z,31.15
2022-08-02T15:05:38.099Z,31.08
2022-08-02T15:08:06.163Z,31.13
2022-08-02T15:10:33.446Z,31.08
2022-08-02T15:13:00.939Z,31.19
2022-08-02T15:15:29.087Z,31.20
2022-08-02T15:17:57.010Z,31.32
2022-08-02T15:20:26.301Z,31.55
2022-08-02T15:22:54.050Z,31.38
2022-08-02T15:25:22.146Z,31.49
2022-08-02T15:27:49.632Z,31.33
2022-08-02T15:30:17.185Z,31.23
2022-08-02T15:32:53.221Z,31.13
2022-08-02T15:35:21.648Z,30.83
2022-08-02T15:37:49.458Z,30.79
2022-08-02T15:40:17.083Z,30.68
2022-08-02T15:42:44.644Z,30.52
2022-08-02T15:45:13.175Z,30.48
2022-08-02T15:47:47.852Z,30.26
2022-08-02T15:50:19.136Z,30.19
2022-08-02T15:52:46.596Z,30.07
2022-08-02T15:55:15.356Z,29.93
2022-08-02T15:57:43.262Z,29.82
2022-08-02T16:00:14.177Z,29.84
2022-08-02T16:02:47.083Z,29.87
2022-08-02T16:05:18.245Z,29.68
2022-08-02T16:07:46.224Z,29.65
2022-08-02T16:10:15.161Z,29.69
2022-08-02T16:12:42.987Z,29.65
2022-08-02T16:15:10.346Z,29.60
2022-08-02T16:17:53.572Z,29.59
2022-08-02T16:20:22.620Z,29.54
2022-08-02T16:22:50.456Z,29.54
2022-08-02T16:25:18.002Z,29.49
2022-08-02T16:28:05.977Z,29.50
2022-08-02T16:30:32.886Z,29.55
2022-08-02T16:33:00.690Z,29.52
2022-08-02T16:35:29.160Z,29.52
2022-08-02T16:37:56.776Z,29.49
2022-08-02T16:40:27.046Z,29.52
2022-08-02T16:42:54.663Z,29.55
2022-08-02T16:45:22.645Z,29.58
2022-08-02T16:47:56.592Z,29.70
2022-08-02T16:50:29.143Z,29.62
2022-08-02T16:52:58.549Z,29.64
2022-08-02T16:58:14.831Z,29.39
2022-08-02T17:00:46.571Z,29.33
2022-08-02T17:03:14.112Z,29.16
2022-08-02T17:05:56.592Z,29.16
2022-08-02T17:08:31.909Z,29.07
2022-08-02T17:11:17.476Z,28.92
2022-08-02T17:13:45.320Z,28.79
2022-08-02T17:16:25.980Z,28.71
2022-08-02T17:18:55.510Z,28.66
2022-08-02T17:21:23.122Z,28.58
2022-08-02T17:24:05.166Z,28.50
2022-08-02T17:26:37.217Z,28.34
2022-08-02T17:29:16.233Z,28.34
2022-08-02T17:32:05.449Z,28.17
2022-08-02T17:34:35.993Z,28.12
2022-08-02T17:37:05.880Z,28.02
2022-08-02T17:39:44.504Z,27.95
2022-08-02T17:42:20.217Z,27.81
2022-08-02T17:45:00.896Z,27.69
2022-08-02T17:47:42.347Z,27.57
2022-08-02T17:50:12.570Z,27.50
2022-08-02T17:52:50.592Z,27.34
2022-08-02T17:55:20.771Z,27.26
2022-08-02T17:57:57.769Z,27.21
2022-08-02T18:00:31.014Z,27.08
2022-08-02T18:02:58.221Z,26.97
2022-08-02T18:05:39.329Z,26.93
2022-08-02T18:08:09.558Z,26.79
2022-08-02T18:10:37.460Z,26.72
2022-08-02T18:13:05.393Z,26.64
2022-08-02T18:15:33.178Z,26.55
2022-08-02T18:18:00.936Z,26.47
2022-08-02T18:20:28.212Z,26.37
2022-08-02T18:22:58.494Z,26.36
2022-08-02T18:25:36.836Z,26.31
2022-08-02T18:28:11.902Z,26.13
2022-08-02T18:30:39.239Z,26.04
2022-08-02T18:33:54.946Z,25.97
2022-08-02T18:35:55.163Z,25.78
2022-08-02T18:38:26.920Z,25.78
2022-08-02T18:40:55.670Z,25.69
2022-08-02T18:43:25.469Z,25.66
2022-08-02T18:46:06.874Z,25.62
2022-08-02T18:48:46.490Z,25.51
2022-08-02T18:51:15.935Z,25.41
2022-08-02T18:53:43.552Z,25.39
2022-08-02T18:56:19.629Z,25.36
2022-08-02T18:58:48.818Z,25.31
2022-08-02T19:01:32.282Z,25.29
2022-08-02T19:04:03.143Z,25.26
2022-08-02T19:06:30.890Z,25.15
2022-08-02T19:08:59.702Z,25.02
2022-08-02T19:11:37.927Z,24.96
2022-08-02T19:14:05.336Z,24.90
2022-08-02T19:16:36.703Z,24.81
2022-08-02T19:19:05.078Z,24.74
2022-08-02T19:22:17.525Z,24.66
2022-08-02T19:24:19.734Z,24.62
2022-08-02T19:26:51.692Z,24.52
2022-08-02T19:29:43.338Z,24.54
2022-08-02T19:32:39.208Z,24.50
2022-08-02T19:34:56.283Z,24.32
2022-08-02T19:37:24.175Z,24.28
2022-08-02T19:39:52.385Z,24.28
2022-08-02T19:42:20.834Z,24.26
2022-08-02T19:44:48.827Z,24.20
2022-08-02T19:47:19.161Z,24.21
2022-08-02T19:49:48.725Z,24.17
2022-08-02T19:55:58.418Z,24.07
2022-08-02T19:57:55.373Z,24.02
2022-08-02T20:00:26.901Z,23.97
2022-08-02T20:02:54.565Z,23.89
2022-08-02T20:05:26.550Z,23.89
2022-08-02T20:07:56.423Z,23.87
2022-08-02T20:10:24.980Z,23.85
2022-08-02T20:12:54.374Z,23.78
2022-08-02T20:15:22.056Z,23.67
2022-08-02T20:17:49.403Z,23.59
2022-08-02T20:20:17.537Z,23.58
2022-08-02T20:23:32.711Z,23.51
2022-08-02T20:25:54.053Z,23.32
2022-08-02T20:28:22.282Z,23.44
2022-08-02T20:30:50.023Z,23.46
2022-08-02T20:33:21.994Z,23.39
2022-08-02T20:35:53.256Z,23.36
2022-08-02T20:38:24.782Z,23.30
2022-08-02T20:40:55.619Z,23.28
2022-08-02T20:43:23.249Z,23.23
2022-08-02T20:46:00.522Z,22.79
2022-08-02T20:48:30.392Z,23.13
2022-08-02T20:50:58.503Z,23.17
2022-08-02T20:53:29.986Z,23.20
2022-08-02T20:55:57.494Z,23.12
2022-08-02T20:58:27.246Z,23.15
2022-08-02T21:00:59.175Z,23.06
2022-08-02T21:03:39.515Z,23.05
2022-08-02T21:06:14.947Z,23.08
2022-08-02T21:08:46.109Z,23.07
2022-08-02T21:11:14.183Z,23.03
2022-08-02T21:13:46.799Z,23.02
2022-08-02T21:16:29.097Z,23.01
2022-08-02T21:18:59.781Z,22.98
2022-08-02T21:21:29.810Z,22.80
2022-08-02T21:23:58.839Z,22.93
2022-08-02T21:26:30.338Z,22.85
2022-08-02T21:29:00.775Z,22.70
2022-08-02T21:31:33.532Z,22.65
2022-08-02T21:34:07.539Z,22.62
2022-08-02T21:36:50.502Z,22.57
2022-08-02T21:39:18.222Z,22.36
2022-08-02T21:41:47.018Z,22.35
2022-08-02T21:44:19.640Z,22.26
2022-08-02T21:46:49.341Z,22.18
2022-08-02T21:49:27.055Z,22.04
2022-08-02T21:52:09.089Z,22.00
2022-08-02T21:54:39.810Z,22.00
2022-08-02T21:57:15.144Z,21.89
2022-08-02T21:59:45.313Z,21.85
2022-08-02T22:02:13.812Z,21.74
2022-08-02T22:04:47.809Z,21.68
2022-08-02T22:07:23.618Z,21.65
2022-08-02T22:09:52.617Z,21.58
2022-08-02T22:12:20.889Z,21.70
2022-08-02T22:17:51.750Z,21.55
2022-08-02T22:20:21.830Z,21.57
2022-08-02T22:22:52.052Z,21.43
2022-08-02T22:25:27.080Z,21.50
2022-08-02T22:28:39.130Z,21.50
2022-08-02T22:30:54.439Z,21.36
2022-08-02T22:33:42.567Z,21.42
2022-08-02T22:36:29.225Z,21.34
2022-08-02T22:38:56.825Z,21.32
2022-08-02T22:41:24.160Z,21.21
2022-08-02T22:43:51.469Z,21.20
2022-08-02T22:46:19.042Z,21.14
2022-08-02T22:48:54.243Z,21.11
2022-08-02T22:51:21.697Z,20.98
2022-08-02T22:53:48.780Z,21.04
2022-08-02T22:56:16.623Z,21.06
2022-08-02T22:58:49.365Z,29.56
2022-08-02T22:58:53.554Z,24.11
2022-08-02T23:01:31.427Z,21.09
2022-08-02T23:03:58.840Z,21.07
2022-08-02T23:06:25.933Z,21.08
2022-08-02T23:08:53.090Z,21.12
2022-08-02T23:11:20.307Z,21.02
2022-08-02T23:13:47.462Z,20.98
2022-08-02T23:16:37.674Z,20.95
2022-08-02T23:19:24.286Z,20.87
2022-08-02T23:22:02.591Z,20.85
2022-08-02T23:24:33.635Z,20.89
2022-08-02T23:27:01.536Z,20.74
2022-08-02T23:29:28.654Z,20.75
2022-08-02T23:31:55.817Z,20.73
2022-08-02T23:34:23.133Z,20.78
2022-08-02T23:36:50.315Z,20.75
2022-08-02T23:39:17.501Z,20.66
2022-08-02T23:41:44.754Z,20.74
2022-08-02T23:44:16.421Z,20.74
2022-08-02T23:46:47.497Z,20.71
2022-08-02T23:49:16.817Z,20.76
2022-08-02T23:51:44.552Z,20.75
2022-08-02T23:54:12.342Z,20.77
2022-08-02T23:56:41.038Z,20.67
2022-08-02T23:59:09.016Z,20.60
